sensor_id;sensor_type;location;lat;lon;timestamp;pressure;altitude;pressure_sealevel;temperature;humidity
19510;BME280;9896;42.486;26.506;2023-03-21T00:01:55;99845.91;;;4.82;100.00
19510;BME280;9896;42.486;26.506;2023-03-21T00:04:22;99833.97;;;4.78;100.00
19510;BME280;9896;42.486;26.506;2023-03-21T00:06:48;99833.50;;;4.74;100.00
19510;BME280;9896;42.486;26.506;2023-03-21T00:09:14;99829.50;;;4.78;100.00
19510;BME280;9896;42.486;26.506;2023-03-21T00:11:39;99829.50;;;4.78;100.00
19510;BME280;9896;42.486;26.506;2023-03-21T00:14:05;99817.56;;;4.74;100.00
19510;BME280;9896;42.486;26.506;2023-03-21T00:16:34;99806.31;;;4.64;100.00
19510;BME280;9896;42.486;26.506;2023-03-21T00:19:00;99806.03;;;4.43;100.00
19510;BME280;9896;42.486;26.506;2023-03-21T00:21:28;99805.56;;;4.39;100.00
19510;BME280;9896;42.486;26.506;2023-03-21T00:23:57;99813.84;;;4.36;100.00
19510;BME280;9896;42.486;26.506;2023-03-21T00:26:23;99813.53;;;4.31;100.00
19510;BME280;9896;42.486;26.506;2023-03-21T00:28:49;99815.16;;;4.32;100.00
19510;BME280;9896;42.486;26.506;2023-03-21T00:31:15;99813.72;;;4.13;100.00
19510;BME280;9896;42.486;26.506;2023-03-21T00:33:40;99811.91;;;4.06;100.00
19510;BME280;9896;42.486;26.506;2023-03-21T00:36:07;99822.50;;;4.14;100.00
19510;BME280;9896;42.486;26.506;2023-03-21T00:38:34;99813.72;;;3.97;100.00
19510;BME280;9896;42.486;26.506;2023-03-21T00:41:03;99816.53;;;3.80;100.00
19510;BME280;9896;42.486;26.506;2023-03-21T00:43:29;99793.97;;;3.67;100.00
19510;BME280;9896;42.486;26.506;2023-03-21T00:45:56;99791.84;;;3.95;100.00
19510;BME280;9896;42.486;26.506;2023-03-21T00:48:26;99788.00;;;4.14;100.00
19510;BME280;9896;42.486;26.506;2023-03-21T00:50:54;99778.25;;;3.90;100.00
19510;BME280;9896;42.486;26.506;2023-03-21T00:53:21;99764.31;;;3.80;100.00
19510;BME280;9896;42.486;26.506;2023-03-21T00:55:48;99773.94;;;3.89;100.00
19510;BME280;9896;42.486;26.506;2023-03-21T00:58:14;99772.13;;;3.82;100.00
19510;BME280;9896;42.486;26.506;2023-03-21T01:00:40;99776.75;;;3.88;100.00
19510;BME280;9896;42.486;26.506;2023-03-21T01:03:08;99779.25;;;3.73;100.00
19510;BME280;9896;42.486;26.506;2023-03-21T01:05:43;99783.72;;;3.64;100.00
19510;BME280;9896;42.486;26.506;2023-03-21T01:08:29;99768.28;;;3.68;100.00
19510;BME280;9896;42.486;26.506;2023-03-21T01:10:55;99786.72;;;3.78;100.00
19510;BME280;9896;42.486;26.506;2023-03-21T01:13:23;99791.16;;;3.61;100.00
19510;BME280;9896;42.486;26.506;2023-03-21T01:15:51;99788.50;;;3.53;100.00
19510;BME280;9896;42.486;26.506;2023-03-21T01:18:19;99778.75;;;3.53;100.00
19510;BME280;9896;42.486;26.506;2023-03-21T01:20:45;99782.72;;;3.57;100.00
19510;BME280;9896;42.486;26.506;2023-03-21T01:23:12;99772.44;;;3.54;100.00
19510;BME280;9896;42.486;26.506;2023-03-21T01:25:38;99769.59;;;3.40;100.00
19510;BME280;9896;42.486;26.506;2023-03-21T01:28:05;99764.47;;;3.38;100.00
19510;BME280;9896;42.486;26.506;2023-03-21T01:30:31;99762.81;;;3.29;100.00
19510;BME280;9896;42.486;26.506;2023-03-21T01:32:56;99775.34;;;3.11;100.00
19510;BME280;9896;42.486;26.506;2023-03-21T01:35:22;99772.19;;;3.07;100.00
19510;BME280;9896;42.486;26.506;2023-03-21T01:37:48;99763.25;;;3.00;100.00
19510;BME280;9896;42.486;26.506;2023-03-21T01:40:21;99761.25;;;3.10;100.00
19510;BME280;9896;42.486;26.506;2023-03-21T01:42:47;99753.59;;;2.91;100.00
19510;BME280;9896;42.486;26.506;2023-03-21T01:48:16;99758.53;;;2.86;100.00
19510;BME280;9896;42.486;26.506;2023-03-21T01:50:42;99751.25;;;2.80;100.00
19510;BME280;9896;42.486;26.506;2023-03-21T01:53:08;99748.13;;;2.85;100.00
19510;BME280;9896;42.486;26.506;2023-03-21T01:55:35;99753.72;;;2.81;100.00
19510;BME280;9896;42.486;26.506;2023-03-21T01:58:02;99753.06;;;2.79;100.00
19510;BME280;9896;42.486;26.506;2023-03-21T02:00:29;99748.44;;;2.81;100.00
19510;BME280;9896;42.486;26.506;2023-03-21T02:02:56;99761.78;;;2.64;100.00
19510;BME280;9896;42.486;26.506;2023-03-21T02:05:40;99752.59;;;2.84;100.00
19510;BME280;9896;42.486;26.506;2023-03-21T02:08:08;99752.94;;;2.89;100.00
19510;BME280;9896;42.486;26.506;2023-03-21T02:10:34;99750.63;;;2.94;100.00
19510;BME280;9896;42.486;26.506;2023-03-21T02:13:03;99745.63;;;2.83;100.00
19510;BME280;9896;42.486;26.506;2023-03-21T02:15:36;99757.91;;;2.92;100.00
19510;BME280;9896;42.486;26.506;2023-03-21T02:20:56;99744.88;;;3.15;100.00
19510;BME280;9896;42.486;26.506;2023-03-21T02:31:59;99745.75;;;3.40;100.00
19510;BME280;9896;42.486;26.506;2023-03-21T02:34:51;99754.34;;;3.17;100.00
19510;BME280;9896;42.486;26.506;2023-03-21T02:41:05;99745.59;;;3.49;100.00
19510;BME280;9896;42.486;26.506;2023-03-21T02:43:43;99742.75;;;3.43;100.00
19510;BME280;9896;42.486;26.506;2023-03-21T02:46:32;99742.13;;;3.57;100.00
19510;BME280;9896;42.486;26.506;2023-03-21T02:49:18;99733.34;;;3.48;100.00
19510;BME280;9896;42.486;26.506;2023-03-21T02:51:47;99738.63;;;3.56;100.00
19510;BME280;9896;42.486;26.506;2023-03-21T02:54:17;99733.69;;;3.61;100.00
19510;BME280;9896;42.486;26.506;2023-03-21T02:56:46;99731.50;;;3.73;100.00
19510;BME280;9896;42.486;26.506;2023-03-21T02:59:14;99728.53;;;3.68;100.00
19510;BME280;9896;42.486;26.506;2023-03-21T03:01:41;99733.34;;;3.72;100.00
19510;BME280;9896;42.486;26.506;2023-03-21T03:04:18;99734.81;;;3.67;100.00
19510;BME280;9896;42.486;26.506;2023-03-21T03:20:54;99716.88;;;4.01;100.00
19510;BME280;9896;42.486;26.506;2023-03-21T03:28:54;99716.41;;;3.98;100.00
19510;BME280;9896;42.486;26.506;2023-03-21T03:31:30;99702.28;;;4.13;100.00
19510;BME280;9896;42.486;26.506;2023-03-21T03:34:00;99710.22;;;4.13;100.00
19510;BME280;9896;42.486;26.506;2023-03-21T03:36:30;99710.38;;;4.20;100.00
19510;BME280;9896;42.486;26.506;2023-03-21T03:39:02;99702.06;;;4.31;100.00
19510;BME280;9896;42.486;26.506;2023-03-21T03:41:30;99709.34;;;4.29;100.00
19510;BME280;9896;42.486;26.506;2023-03-21T03:43:58;99711.88;;;4.22;100.00
19510;BME280;9896;42.486;26.506;2023-03-21T03:49:56;99710.28;;;4.44;100.00
19510;BME280;9896;42.486;26.506;2023-03-21T03:52:36;99709.28;;;4.45;100.00
19510;BME280;9896;42.486;26.506;2023-03-21T03:55:03;99720.38;;;4.49;100.00
19510;BME280;9896;42.486;26.506;2023-03-21T03:57:28;99706.78;;;4.52;100.00
19510;BME280;9896;42.486;26.506;2023-03-21T03:59:54;99713.25;;;4.49;100.00
19510;BME280;9896;42.486;26.506;2023-03-21T04:02:20;99711.47;;;4.42;100.00
19510;BME280;9896;42.486;26.506;2023-03-21T04:04:46;99714.47;;;4.39;100.00
19510;BME280;9896;42.486;26.506;2023-03-21T04:07:12;99718.09;;;4.46;100.00
19510;BME280;9896;42.486;26.506;2023-03-21T04:09:38;99726.22;;;4.44;100.00
19510;BME280;9896;42.486;26.506;2023-03-21T04:12:03;99729.84;;;4.51;100.00
19510;BME280;9896;42.486;26.506;2023-03-21T04:14:29;99736.81;;;4.52;100.00
19510;BME280;9896;42.486;26.506;2023-03-21T04:16:54;99732.00;;;4.56;100.00
19510;BME280;9896;42.486;26.506;2023-03-21T04:19:20;99723.81;;;4.65;100.00
19510;BME280;9896;42.486;26.506;2023-03-21T04:21:46;99735.63;;;4.63;100.00
19510;BME280;9896;42.486;26.506;2023-03-21T04:24:12;99744.53;;;4.70;100.00
19510;BME280;9896;42.486;26.506;2023-03-21T04:26:38;99726.91;;;4.77;100.00
19510;BME280;9896;42.486;26.506;2023-03-21T04:29:05;99732.56;;;4.74;100.00
19510;BME280;9896;42.486;26.506;2023-03-21T04:31:32;99731.69;;;4.82;100.00
19510;BME280;9896;42.486;26.506;2023-03-21T04:34:04;99728.13;;;4.97;100.00
19510;BME280;9896;42.486;26.506;2023-03-21T04:36:35;99738.44;;;5.00;100.00
19510;BME280;9896;42.486;26.506;2023-03-21T04:39:04;99738.13;;;4.95;100.00
19510;BME280;9896;42.486;26.506;2023-03-21T04:41:37;99743.47;;;4.87;100.00
19510;BME280;9896;42.486;26.506;2023-03-21T04:44:02;99734.94;;;5.00;100.00
19510;BME280;9896;42.486;26.506;2023-03-21T04:46:28;99740.78;;;4.95;100.00
19510;BME280;9896;42.486;26.506;2023-03-21T04:48:53;99749.19;;;5.07;100.00
19510;BME280;9896;42.486;26.506;2023-03-21T04:51:19;99746.34;;;5.08;100.00
19510;BME280;9896;42.486;26.506;2023-03-21T04:53:44;99752.00;;;5.05;100.00
19510;BME280;9896;42.486;26.506;2023-03-21T04:56:13;99760.22;;;5.19;100.00
19510;BME280;9896;42.486;26.506;2023-03-21T04:58:38;99753.13;;;5.11;100.00
19510;BME280;9896;42.486;26.506;2023-03-21T05:01:07;99746.53;;;5.07;100.00
19510;BME280;9896;42.486;26.506;2023-03-21T05:03:33;99750.31;;;5.12;100.00
19510;BME280;9896;42.486;26.506;2023-03-21T05:06:07;99748.81;;;5.10;100.00
19510;BME280;9896;42.486;26.506;2023-03-21T05:08:34;99742.38;;;5.04;100.00
19510;BME280;9896;42.486;26.506;2023-03-21T05:11:01;99740.56;;;5.05;100.00
19510;BME280;9896;42.486;26.506;2023-03-21T05:13:26;99742.03;;;5.07;100.00
19510;BME280;9896;42.486;26.506;2023-03-21T05:15:52;99738.38;;;5.08;100.00
19510;BME280;9896;42.486;26.506;2023-03-21T05:18:18;99740.00;;;5.18;100.00
19510;BME280;9896;42.486;26.506;2023-03-21T05:20:50;99736.72;;;5.30;100.00
19510;BME280;9896;42.486;26.506;2023-03-21T05:23:23;99753.81;;;5.36;100.00
19510;BME280;9896;42.486;26.506;2023-03-21T05:25:49;99756.16;;;5.31;100.00
19510;BME280;9896;42.486;26.506;2023-03-21T05:28:15;99758.78;;;5.39;100.00
19510;BME280;9896;42.486;26.506;2023-03-21T05:30:44;99762.47;;;5.38;100.00
19510;BME280;9896;42.486;26.506;2023-03-21T05:33:11;99756.94;;;5.39;100.00
19510;BME280;9896;42.486;26.506;2023-03-21T05:35:37;99755.84;;;5.56;100.00
19510;BME280;9896;42.486;26.506;2023-03-21T05:38:03;99756.41;;;5.67;100.00
19510;BME280;9896;42.486;26.506;2023-03-21T05:40:28;99745.28;;;5.86;100.00
19510;BME280;9896;42.486;26.506;2023-03-21T05:42:54;99752.94;;;5.89;100.00
19510;BME280;9896;42.486;26.506;2023-03-21T05:45:19;99753.34;;;5.78;100.00
19510;BME280;9896;42.486;26.506;2023-03-21T05:47:45;99751.03;;;5.97;100.00
19510;BME280;9896;42.486;26.506;2023-03-21T05:50:11;99747.84;;;6.17;100.00
19510;BME280;9896;42.486;26.506;2023-03-21T05:52:38;99746.97;;;6.39;100.00
19510;BME280;9896;42.486;26.506;2023-03-21T05:55:04;99743.19;;;6.33;100.00
19510;BME280;9896;42.486;26.506;2023-03-21T05:57:29;99750.16;;;6.34;100.00
19510;BME280;9896;42.486;26.506;2023-03-21T05:59:59;99748.69;;;6.46;100.00
19510;BME280;9896;42.486;26.506;2023-03-21T06:02:25;99752.09;;;6.55;100.00
19510;BME280;9896;42.486;26.506;2023-03-21T06:04:51;99750.16;;;6.78;100.00
19510;BME280;9896;42.486;26.506;2023-03-21T06:07:17;99748.56;;;6.98;100.00
19510;BME280;9896;42.486;26.506;2023-03-21T06:09:43;99743.34;;;6.61;100.00
19510;BME280;9896;42.486;26.506;2023-03-21T06:12:09;99739.94;;;6.96;100.00
19510;BME280;9896;42.486;26.506;2023-03-21T06:14:35;99755.94;;;6.82;100.00
19510;BME280;9896;42.486;26.506;2023-03-21T06:17:01;99740.66;;;6.90;100.00
19510;BME280;9896;42.486;26.506;2023-03-21T06:19:26;99750.13;;;6.93;100.00
19510;BME280;9896;42.486;26.506;2023-03-21T06:21:51;99752.34;;;6.75;100.00
19510;BME280;9896;42.486;26.506;2023-03-21T06:24:17;99758.91;;;6.72;100.00
19510;BME280;9896;42.486;26.506;2023-03-21T06:26:43;99762.25;;;6.81;100.00
19510;BME280;9896;42.486;26.506;2023-03-21T06:29:09;99745.06;;;6.98;100.00
19510;BME280;9896;42.486;26.506;2023-03-21T06:31:34;99761.69;;;7.00;100.00
19510;BME280;9896;42.486;26.506;2023-03-21T06:34:00;99763.59;;;7.21;100.00
19510;BME280;9896;42.486;26.506;2023-03-21T06:36:25;99762.94;;;6.68;100.00
19510;BME280;9896;42.486;26.506;2023-03-21T06:38:51;99765.19;;;7.00;100.00
19510;BME280;9896;42.486;26.506;2023-03-21T06:41:17;99765.38;;;7.35;100.00
19510;BME280;9896;42.486;26.506;2023-03-21T06:43:43;99764.31;;;7.72;100.00
19510;BME280;9896;42.486;26.506;2023-03-21T06:46:09;99773.63;;;8.04;100.00
19510;BME280;9896;42.486;26.506;2023-03-21T06:48:34;99783.56;;;8.37;100.00
19510;BME280;9896;42.486;26.506;2023-03-21T06:51:01;99779.91;;;8.45;100.00
19510;BME280;9896;42.486;26.506;2023-03-21T06:53:29;99778.47;;;7.93;100.00
19510;BME280;9896;42.486;26.506;2023-03-21T06:55:56;99792.09;;;8.48;100.00
19510;BME280;9896;42.486;26.506;2023-03-21T06:58:22;99783.06;;;7.78;100.00
19510;BME280;9896;42.486;26.506;2023-03-21T07:00:48;99784.97;;;7.63;100.00
19510;BME280;9896;42.486;26.506;2023-03-21T07:03:14;99783.13;;;7.64;100.00
19510;BME280;9896;42.486;26.506;2023-03-21T07:05:39;99779.63;;;7.84;100.00
19510;BME280;9896;42.486;26.506;2023-03-21T07:08:06;99787.19;;;8.02;100.00
19510;BME280;9896;42.486;26.506;2023-03-21T07:10:38;99784.66;;;8.22;100.00
19510;BME280;9896;42.486;26.506;2023-03-21T07:13:04;99780.06;;;8.37;100.00
19510;BME280;9896;42.486;26.506;2023-03-21T07:15:29;99775.88;;;8.97;100.00
19510;BME280;9896;42.486;26.506;2023-03-21T07:17:55;99776.72;;;8.97;100.00
19510;BME280;9896;42.486;26.506;2023-03-21T07:20:21;99771.66;;;9.15;100.00
19510;BME280;9896;42.486;26.506;2023-03-21T07:22:46;99772.16;;;8.91;100.00
19510;BME280;9896;42.486;26.506;2023-03-21T07:25:12;99771.31;;;9.38;100.00
19510;BME280;9896;42.486;26.506;2023-03-21T07:27:37;99767.88;;;9.84;100.00
19510;BME280;9896;42.486;26.506;2023-03-21T07:30:04;99769.16;;;10.27;100.00
19510;BME280;9896;42.486;26.506;2023-03-21T07:32:33;99765.84;;;10.12;100.00
19510;BME280;9896;42.486;26.506;2023-03-21T07:34:59;99773.19;;;9.51;100.00
19510;BME280;9896;42.486;26.506;2023-03-21T07:37:26;99772.59;;;8.95;100.00
19510;BME280;9896;42.486;26.506;2023-03-21T07:39:51;99772.06;;;9.12;100.00
19510;BME280;9896;42.486;26.506;2023-03-21T07:42:17;99772.41;;;9.03;100.00
19510;BME280;9896;42.486;26.506;2023-03-21T07:44:43;99769.22;;;9.33;100.00
19510;BME280;9896;42.486;26.506;2023-03-21T07:47:09;99772.72;;;9.34;100.00
19510;BME280;9896;42.486;26.506;2023-03-21T07:49:36;99772.78;;;9.41;100.00
19510;BME280;9896;42.486;26.506;2023-03-21T07:52:02;99778.25;;;9.26;100.00
19510;BME280;9896;42.486;26.506;2023-03-21T07:54:28;99782.47;;;9.55;100.00
19510;BME280;9896;42.486;26.506;2023-03-21T07:56:54;99778.41;;;10.05;100.00
19510;BME280;9896;42.486;26.506;2023-03-21T07:59:20;99773.88;;;10.05;100.00
19510;BME280;9896;42.486;26.506;2023-03-21T08:01:45;99778.59;;;9.77;100.00
19510;BME280;9896;42.486;26.506;2023-03-21T08:04:11;99783.94;;;9.57;100.00
19510;BME280;9896;42.486;26.506;2023-03-21T08:06:36;99784.56;;;9.72;100.00
19510;BME280;9896;42.486;26.506;2023-03-21T08:09:02;99784.78;;;9.10;100.00
19510;BME280;9896;42.486;26.506;2023-03-21T08:11:28;99778.41;;;10.05;100.00
19510;BME280;9896;42.486;26.506;2023-03-21T08:13:58;99782.72;;;10.52;100.00
19510;BME280;9896;42.486;26.506;2023-03-21T08:16:23;99775.78;;;10.18;100.00
19510;BME280;9896;42.486;26.506;2023-03-21T08:18:49;99779.56;;;10.81;100.00
19510;BME280;9896;42.486;26.506;2023-03-21T08:21:14;99794.66;;;10.69;100.00
19510;BME280;9896;42.486;26.506;2023-03-21T08:23:40;99787.50;;;10.43;100.00
19510;BME280;9896;42.486;26.506;2023-03-21T08:26:05;99794.91;;;10.41;100.00
19510;BME280;9896;42.486;26.506;2023-03-21T08:28:32;99794.19;;;10.98;100.00
19510;BME280;9896;42.486;26.506;2023-03-21T08:30:57;99789.53;;;10.48;100.00
19510;BME280;9896;42.486;26.506;2023-03-21T08:33:22;99775.84;;;10.89;100.00
19510;BME280;9896;42.486;26.506;2023-03-21T08:35:48;99789.06;;;10.84;100.00
19510;BME280;9896;42.486;26.506;2023-03-21T08:38:14;99781.34;;;11.51;100.00
19510;BME280;9896;42.486;26.506;2023-03-21T08:40:40;99781.88;;;11.73;100.00
19510;BME280;9896;42.486;26.506;2023-03-21T08:43:05;99778.16;;;11.30;100.00
19510;BME280;9896;42.486;26.506;2023-03-21T08:45:31;99771.34;;;11.27;100.00
19510;BME280;9896;42.486;26.506;2023-03-21T08:47:56;99769.84;;;11.38;100.00
19510;BME280;9896;42.486;26.506;2023-03-21T08:50:24;99760.06;;;11.56;100.00
19510;BME280;9896;42.486;26.506;2023-03-21T08:52:50;99769.59;;;11.46;100.00
19510;BME280;9896;42.486;26.506;2023-03-21T08:55:17;99758.78;;;12.40;100.00
19510;BME280;9896;42.486;26.506;2023-03-21T08:57:43;99762.41;;;12.70;98.46
19510;BME280;9896;42.486;26.506;2023-03-21T09:00:13;99760.84;;;12.20;100.00
19510;BME280;9896;42.486;26.506;2023-03-21T09:02:40;99742.34;;;12.30;99.33
19510;BME280;9896;42.486;26.506;2023-03-21T09:05:07;99750.72;;;12.40;99.37
19510;BME280;9896;42.486;26.506;2023-03-21T09:07:33;99764.69;;;12.30;97.63
19510;BME280;9896;42.486;26.506;2023-03-21T09:10:04;99752.78;;;12.63;97.00
19510;BME280;9896;42.486;26.506;2023-03-21T09:12:31;99745.69;;;12.00;99.55
19510;BME280;9896;42.486;26.506;2023-03-21T09:14:57;99742.94;;;12.07;100.00
19510;BME280;9896;42.486;26.506;2023-03-21T09:17:23;99735.50;;;12.52;98.62
19510;BME280;9896;42.486;26.506;2023-03-21T09:19:49;99736.97;;;13.39;93.73
19510;BME280;9896;42.486;26.506;2023-03-21T09:22:15;99736.22;;;11.98;99.34
19510;BME280;9896;42.486;26.506;2023-03-21T09:24:48;99716.28;;;13.03;95.09
19510;BME280;9896;42.486;26.506;2023-03-21T09:27:16;99719.00;;;12.67;95.81
19510;BME280;9896;42.486;26.506;2023-03-21T09:29:42;99719.50;;;13.41;92.93
19510;BME280;9896;42.486;26.506;2023-03-21T09:32:09;99716.38;;;13.15;92.71
19510;BME280;9896;42.486;26.506;2023-03-21T09:34:37;99707.16;;;13.52;91.61
19510;BME280;9896;42.486;26.506;2023-03-21T09:37:08;99708.41;;;13.49;90.52
19510;BME280;9896;42.486;26.506;2023-03-21T09:39:41;99705.47;;;13.92;89.09
19510;BME280;9896;42.486;26.506;2023-03-21T09:42:32;99708.50;;;13.84;89.21
19510;BME280;9896;42.486;26.506;2023-03-21T09:47:41;99690.94;;;14.28;87.64
19510;BME280;9896;42.486;26.506;2023-03-21T09:50:15;99695.88;;;14.55;83.55
19510;BME280;9896;42.486;26.506;2023-03-21T09:55:24;99678.59;;;15.07;81.83
19510;BME280;9896;42.486;26.506;2023-03-21T09:58:34;99688.41;;;15.42;80.27
19510;BME280;9896;42.486;26.506;2023-03-21T10:01:10;99692.56;;;15.04;81.21
19510;BME280;9896;42.486;26.506;2023-03-21T10:03:47;99692.22;;;15.57;79.16
19510;BME280;9896;42.486;26.506;2023-03-21T10:06:15;99688.63;;;15.52;77.04
19510;BME280;9896;42.486;26.506;2023-03-21T10:08:44;99679.56;;;15.46;77.69
19510;BME280;9896;42.486;26.506;2023-03-21T10:11:25;99675.94;;;15.24;78.32
19510;BME280;9896;42.486;26.506;2023-03-21T10:13:58;99678.31;;;15.37;78.85
19510;BME280;9896;42.486;26.506;2023-03-21T10:18:53;99681.94;;;15.43;78.59
19510;BME280;9896;42.486;26.506;2023-03-21T10:21:24;99676.28;;;15.72;77.24
19510;BME280;9896;42.486;26.506;2023-03-21T10:23:53;99669.63;;;15.18;80.08
19510;BME280;9896;42.486;26.506;2023-03-21T10:26:20;99663.91;;;15.76;77.54
19510;BME280;9896;42.486;26.506;2023-03-21T10:28:47;99657.38;;;16.27;74.82
19510;BME280;9896;42.486;26.506;2023-03-21T10:31:18;99670.28;;;16.04;75.27
19510;BME280;9896;42.486;26.506;2023-03-21T10:33:48;99670.44;;;16.14;75.85
19510;BME280;9896;42.486;26.506;2023-03-21T10:36:25;99673.72;;;15.82;75.60
19510;BME280;9896;42.486;26.506;2023-03-21T10:39:24;99671.13;;;15.88;75.07
19510;BME280;9896;42.486;26.506;2023-03-21T10:41:51;99666.13;;;15.96;74.63
19510;BME280;9896;42.486;26.506;2023-03-21T10:44:18;99668.41;;;16.04;74.45
19510;BME280;9896;42.486;26.506;2023-03-21T10:46:53;99661.38;;;15.87;75.81
19510;BME280;9896;42.486;26.506;2023-03-21T10:49:20;99665.38;;;16.39;73.00
19510;BME280;9896;42.486;26.506;2023-03-21T10:51:48;99656.09;;;16.13;74.06
19510;BME280;9896;42.486;26.506;2023-03-21T10:54:18;99656.34;;;16.50;73.33
19510;BME280;9896;42.486;26.506;2023-03-21T10:56:55;99652.97;;;16.21;73.40
19510;BME280;9896;42.486;26.506;2023-03-21T10:59:22;99656.44;;;16.17;74.19
19510;BME280;9896;42.486;26.506;2023-03-21T11:01:50;99651.28;;;15.99;76.27
19510;BME280;9896;42.486;26.506;2023-03-21T11:04:19;99647.72;;;16.53;73.63
19510;BME280;9896;42.486;26.506;2023-03-21T11:06:55;99634.34;;;16.63;73.33
19510;BME280;9896;42.486;26.506;2023-03-21T11:09:26;99641.41;;;17.13;71.37
19510;BME280;9896;42.486;26.506;2023-03-21T11:12:14;99637.84;;;16.64;73.93
19510;BME280;9896;42.486;26.506;2023-03-21T11:14:45;99637.41;;;16.50;75.45
19510;BME280;9896;42.486;26.506;2023-03-21T11:19:56;99630.91;;;17.22;70.85
19510;BME280;9896;42.486;26.506;2023-03-21T11:22:24;99630.47;;;17.03;71.89
19510;BME280;9896;42.486;26.506;2023-03-21T11:24:58;99622.25;;;16.71;73.27
19510;BME280;9896;42.486;26.506;2023-03-21T11:27:26;99626.88;;;17.24;70.79
19510;BME280;9896;42.486;26.506;2023-03-21T11:29:55;99628.00;;;16.75;72.70
19510;BME280;9896;42.486;26.506;2023-03-21T11:32:53;99630.66;;;16.53;73.41
19510;BME280;9896;42.486;26.506;2023-03-21T11:35:22;99605.28;;;17.02;69.79
19510;BME280;9896;42.486;26.506;2023-03-21T11:37:54;99613.50;;;16.86;69.49
19510;BME280;9896;42.486;26.506;2023-03-21T11:40:26;99617.63;;;17.20;68.27
19510;BME280;9896;42.486;26.506;2023-03-21T11:42:55;99607.06;;;17.18;67.02
19510;BME280;9896;42.486;26.506;2023-03-21T11:45:32;99604.44;;;17.29;67.46
19510;BME280;9896;42.486;26.506;2023-03-21T11:47:59;99600.56;;;17.19;66.68
19510;BME280;9896;42.486;26.506;2023-03-21T11:50:34;99604.41;;;17.24;65.74
19510;BME280;9896;42.486;26.506;2023-03-21T11:56:09;99596.09;;;17.03;66.47
19510;BME280;9896;42.486;26.506;2023-03-21T12:02:14;99596.59;;;17.32;63.63
19510;BME280;9896;42.486;26.506;2023-03-21T12:07:43;99566.66;;;17.49;64.30
19510;BME280;9896;42.486;26.506;2023-03-21T12:10:30;99561.22;;;17.44;64.27
19510;BME280;9896;42.486;26.506;2023-03-21T12:25:04;99538.56;;;17.28;62.18
19510;BME280;9896;42.486;26.506;2023-03-21T12:30:24;99531.16;;;18.44;55.76
19510;BME280;9896;42.486;26.506;2023-03-21T12:33:34;99535.09;;;18.89;53.86
19510;BME280;9896;42.486;26.506;2023-03-21T12:36:34;99532.81;;;17.88;59.25
19510;BME280;9896;42.486;26.506;2023-03-21T12:41:43;99521.13;;;17.51;62.05
19510;BME280;9896;42.486;26.506;2023-03-21T12:44:16;99509.09;;;18.26;59.61
19510;BME280;9896;42.486;26.506;2023-03-21T12:46:49;99507.50;;;17.73;61.11
19510;BME280;9896;42.486;26.506;2023-03-21T12:52:03;99488.16;;;18.16;60.95
19510;BME280;9896;42.486;26.506;2023-03-21T12:54:32;99477.91;;;18.33;59.55
19510;BME280;9896;42.486;26.506;2023-03-21T12:59:38;99471.91;;;18.21;59.87
19510;BME280;9896;42.486;26.506;2023-03-21T13:02:25;99462.66;;;18.22;60.44
19510;BME280;9896;42.486;26.506;2023-03-21T13:07:45;99446.06;;;18.08;55.92
19510;BME280;9896;42.486;26.506;2023-03-21T13:10:18;99444.22;;;18.34;56.94
19510;BME280;9896;42.486;26.506;2023-03-21T13:21:13;99439.34;;;18.31;57.60
19510;BME280;9896;42.486;26.506;2023-03-21T13:24:03;99438.78;;;18.24;58.78
19510;BME280;9896;42.486;26.506;2023-03-21T13:26:39;99436.34;;;18.28;59.88
19510;BME280;9896;42.486;26.506;2023-03-21T13:29:24;99426.69;;;17.75;61.44
19510;BME280;9896;42.486;26.506;2023-03-21T13:31:53;99437.81;;;17.78;61.83
19510;BME280;9896;42.486;26.506;2023-03-21T13:34:24;99421.16;;;18.32;60.49
19510;BME280;9896;42.486;26.506;2023-03-21T13:36:51;99429.84;;;18.24;61.31
19510;BME280;9896;42.486;26.506;2023-03-21T13:39:27;99425.69;;;18.06;62.05
19510;BME280;9896;42.486;26.506;2023-03-21T13:41:53;99424.19;;;17.63;63.76
19510;BME280;9896;42.486;26.506;2023-03-21T13:44:24;99429.03;;;17.61;64.29
19510;BME280;9896;42.486;26.506;2023-03-21T13:46:58;99431.31;;;17.37;66.40
19510;BME280;9896;42.486;26.506;2023-03-21T13:49:33;99430.47;;;17.69;65.73
19510;BME280;9896;42.486;26.506;2023-03-21T13:52:02;99420.78;;;17.41;67.83
19510;BME280;9896;42.486;26.506;2023-03-21T13:54:56;99423.56;;;17.51;68.80
19510;BME280;9896;42.486;26.506;2023-03-21T13:57:35;99401.19;;;17.24;70.40
19510;BME280;9896;42.486;26.506;2023-03-21T14:00:28;99425.38;;;17.40;70.92
19510;BME280;9896;42.486;26.506;2023-03-21T14:03:00;99420.41;;;17.22;72.32
19510;BME280;9896;42.486;26.506;2023-03-21T14:05:30;99404.66;;;17.19;72.18
19510;BME280;9896;42.486;26.506;2023-03-21T14:08:16;99402.50;;;17.21;72.04
19510;BME280;9896;42.486;26.506;2023-03-21T14:10:44;99387.91;;;17.27;71.38
19510;BME280;9896;42.486;26.506;2023-03-21T14:13:15;99389.00;;;17.26;71.16
19510;BME280;9896;42.486;26.506;2023-03-21T14:15:44;99392.13;;;17.08;72.36
19510;BME280;9896;42.486;26.506;2023-03-21T14:18:17;99380.75;;;17.06;73.34
19510;BME280;9896;42.486;26.506;2023-03-21T14:20:43;99377.16;;;16.95;76.02
19510;BME280;9896;42.486;26.506;2023-03-21T14:23:14;99386.78;;;16.49;79.80
19510;BME280;9896;42.486;26.506;2023-03-21T14:25:41;99397.00;;;16.42;81.13
19510;BME280;9896;42.486;26.506;2023-03-21T14:28:14;99410.19;;;16.39;82.03
19510;BME280;9896;42.486;26.506;2023-03-21T14:30:41;99416.22;;;16.19;83.78
19510;BME280;9896;42.486;26.506;2023-03-21T14:35:41;99425.38;;;15.91;86.08
19510;BME280;9896;42.486;26.506;2023-03-21T14:38:19;99433.75;;;15.90;86.21
19510;BME280;9896;42.486;26.506;2023-03-21T14:40:50;99429.56;;;15.77;87.24
19510;BME280;9896;42.486;26.506;2023-03-21T14:43:18;99436.63;;;15.83;86.91
19510;BME280;9896;42.486;26.506;2023-03-21T14:45:47;99440.91;;;16.01;86.73
19510;BME280;9896;42.486;26.506;2023-03-21T14:48:14;99452.44;;;15.91;87.65
19510;BME280;9896;42.486;26.506;2023-03-21T14:50:53;99450.66;;;15.80;88.02